sensor_id;sensor_type;location;lat;lon;timestamp;pressure;altitude;pressure_sealevel;temperature
15360;BMP280;7779;49.596;11.070;2022-08-23T00:01:40;98252.19;;;18.01
15360;BMP280;7779;49.596;11.070;2022-08-23T00:04:38;98254.63;;;17.98
15360;BMP280;7779;49.596;11.070;2022-08-23T00:07:08;98247.72;;;17.93
15360;BMP280;7779;49.596;11.070;2022-08-23T00:09:34;98255.19;;;17.88
15360;BMP280;7779;49.596;11.070;2022-08-23T00:12:18;98251.75;;;17.85
15360;BMP280;7779;49.596;11.070;2022-08-23T00:14:50;98252.41;;;17.79
15360;BMP280;7779;49.596;11.070;2022-08-23T00:17:17;98248.91;;;17.74
15360;BMP280;7779;49.596;11.070;2022-08-23T00:19:44;98239.53;;;17.72
15360;BMP280;7779;49.596;11.070;2022-08-23T00:22:10;98239.44;;;17.67
15360;BMP280;7779;49.596;11.070;2022-08-23T00:24:38;98244.44;;;17.66
15360;BMP280;7779;49.596;11.070;2022-08-23T00:27:15;98241.88;;;17.64
15360;BMP280;7779;49.596;11.070;2022-08-23T00:29:54;98238.38;;;17.61
15360;BMP280;7779;49.596;11.070;2022-08-23T00:32:28;98244.25;;;17.59
15360;BMP280;7779;49.596;11.070;2022-08-23T00:34:55;98239.91;;;17.55
15360;BMP280;7779;49.596;11.070;2022-08-23T00:37:23;98237.34;;;17.53
15360;BMP280;7779;49.596;11.070;2022-08-23T00:39:49;98253.34;;;17.52
15360;BMP280;7779;49.596;11.070;2022-08-23T00:42:37;98243.19;;;17.51
15360;BMP280;7779;49.596;11.070;2022-08-23T00:45:51;98249.78;;;17.46
15360;BMP280;7779;49.596;11.070;2022-08-23T00:48:38;98243.72;;;17.41
15360;BMP280;7779;49.596;11.070;2022-08-23T00:51:12;98239.50;;;17.40
15360;BMP280;7779;49.596;11.070;2022-08-23T00:53:51;98248.69;;;17.38
15360;BMP280;7779;49.596;11.070;2022-08-23T00:56:21;98249.44;;;17.34
15360;BMP280;7779;49.596;11.070;2022-08-23T00:58:48;98246.84;;;17.31
15360;BMP280;7779;49.596;11.070;2022-08-23T01:01:16;98255.19;;;17.28
15360;BMP280;7779;49.596;11.070;2022-08-23T01:03:46;98255.97;;;17.26
15360;BMP280;7779;49.596;11.070;2022-08-23T01:06:20;98255.00;;;17.22
15360;BMP280;7779;49.596;11.070;2022-08-23T01:08:53;98257.50;;;17.21
15360;BMP280;7779;49.596;11.070;2022-08-23T01:11:41;98255.69;;;17.17
15360;BMP280;7779;49.596;11.070;2022-08-23T01:14:18;98259.91;;;17.17
15360;BMP280;7779;49.596;11.070;2022-08-23T01:16:55;98261.50;;;17.15
15360;BMP280;7779;49.596;11.070;2022-08-23T01:19:38;98262.31;;;17.14
15360;BMP280;7779;49.596;11.070;2022-08-23T01:24:52;98263.03;;;17.10
15360;BMP280;7779;49.596;11.070;2022-08-23T01:27:19;98273.91;;;17.07
15360;BMP280;7779;49.596;11.070;2022-08-23T01:29:45;98273.88;;;17.06
15360;BMP280;7779;49.596;11.070;2022-08-23T01:32:12;98279.75;;;17.05
15360;BMP280;7779;49.596;11.070;2022-08-23T01:34:39;98279.69;;;17.03
15360;BMP280;7779;49.596;11.070;2022-08-23T01:37:07;98280.53;;;17.02
15360;BMP280;7779;49.596;11.070;2022-08-23T01:39:34;98280.53;;;17.02
15360;BMP280;7779;49.596;11.070;2022-08-23T01:42:04;98276.28;;;17.01
15360;BMP280;7779;49.596;11.070;2022-08-23T01:44:31;98279.66;;;17.02
15360;BMP280;7779;49.596;11.070;2022-08-23T01:46:57;98287.22;;;17.00
15360;BMP280;7779;49.596;11.070;2022-08-23T01:49:23;98281.28;;;17.00
15360;BMP280;7779;49.596;11.070;2022-08-23T01:51:49;98280.44;;;16.99
15360;BMP280;7779;49.596;11.070;2022-08-23T01:54:15;98275.25;;;16.96
15360;BMP280;7779;49.596;11.070;2022-08-23T01:56:41;98265.91;;;16.94
15360;BMP280;7779;49.596;11.070;2022-08-23T01:59:11;98267.56;;;16.92
15360;BMP280;7779;49.596;11.070;2022-08-23T02:01:44;98271.66;;;16.88
15360;BMP280;7779;49.596;11.070;2022-08-23T02:04:11;98277.50;;;16.86
15360;BMP280;7779;49.596;11.070;2022-08-23T02:06:38;98273.13;;;16.82
15360;BMP280;7779;49.596;11.070;2022-08-23T02:09:05;98273.09;;;16.81
15360;BMP280;7779;49.596;11.070;2022-08-23T02:11:39;98277.25;;;16.79
15360;BMP280;7779;49.596;11.070;2022-08-23T02:14:10;98277.22;;;16.77
15360;BMP280;7779;49.596;11.070;2022-08-23T02:16:50;98276.25;;;16.74
15360;BMP280;7779;49.596;11.070;2022-08-23T02:19:17;98276.16;;;16.71
15360;BMP280;7779;49.596;11.070;2022-08-23T02:21:43;98282.84;;;16.69
15360;BMP280;7779;49.596;11.070;2022-08-23T02:24:20;98294.56;;;16.67
15360;BMP280;7779;49.596;11.070;2022-08-23T02:26:51;98286.88;;;16.64
15360;BMP280;7779;49.596;11.070;2022-08-23T02:29:21;98282.53;;;16.60
15360;BMP280;7779;49.596;11.070;2022-08-23T02:31:49;98281.53;;;16.55
15360;BMP280;7779;49.596;11.070;2022-08-23T02:34:17;98284.03;;;16.53
15360;BMP280;7779;49.596;11.070;2022-08-23T02:36:43;98291.47;;;16.49
15360;BMP280;7779;49.596;11.070;2022-08-23T02:39:12;98286.28;;;16.46
15360;BMP280;7779;49.596;11.070;2022-08-23T02:41:39;98292.06;;;16.42
15360;BMP280;7779;49.596;11.070;2022-08-23T02:44:08;98286.94;;;16.39
15360;BMP280;7779;49.596;11.070;2022-08-23T02:46:37;98284.22;;;16.35
15360;BMP280;7779;49.596;11.070;2022-08-23T02:49:05;98284.09;;;16.30
15360;BMP280;7779;49.596;11.070;2022-08-23T02:51:31;98283.13;;;16.27
15360;BMP280;7779;49.596;11.070;2022-08-23T02:53:57;98277.13;;;16.23
15360;BMP280;7779;49.596;11.070;2022-08-23T02:56:24;98283.72;;;16.20
15360;BMP280;7779;49.596;11.070;2022-08-23T02:58:51;98286.97;;;16.17
15360;BMP280;7779;49.596;11.070;2022-08-23T03:01:33;98279.31;;;16.14
15360;BMP280;7779;49.596;11.070;2022-08-23T03:04:11;98285.06;;;16.10
15360;BMP280;7779;49.596;11.070;2022-08-23T03:06:38;98286.63;;;16.07
15360;BMP280;7779;49.596;11.070;2022-08-23T03:09:05;98286.50;;;16.04
15360;BMP280;7779;49.596;11.070;2022-08-23T03:11:32;98290.59;;;16.01
15360;BMP280;7779;49.596;11.070;2022-08-23T03:13:58;98301.41;;;15.97
15360;BMP280;7779;49.596;11.070;2022-08-23T03:16:26;98301.34;;;15.95
15360;BMP280;7779;49.596;11.070;2022-08-23T03:18:54;98300.41;;;15.92
15360;BMP280;7779;49.596;11.070;2022-08-23T03:21:20;98301.16;;;15.89
15360;BMP280;7779;49.596;11.070;2022-08-23T03:23:47;98299.38;;;15.87
15360;BMP280;7779;49.596;11.070;2022-08-23T03:26:15;98295.84;;;15.82
15360;BMP280;7779;49.596;11.070;2022-08-23T03:28:44;98300.84;;;15.80
15360;BMP280;7779;49.596;11.070;2022-08-23T03:31:13;98296.44;;;15.75
15360;BMP280;7779;49.596;11.070;2022-08-23T03:34:04;98308.88;;;15.70
15360;BMP280;7779;49.596;11.070;2022-08-23T03:36:31;98289.31;;;15.65
15360;BMP280;7779;49.596;11.070;2022-08-23T03:38:59;98301.03;;;15.63
15360;BMP280;7779;49.596;11.070;2022-08-23T03:41:25;98307.63;;;15.60
15360;BMP280;7779;49.596;11.070;2022-08-23T03:43:51;98300.81;;;15.57
15360;BMP280;7779;49.596;11.070;2022-08-23T03:46:18;98306.66;;;15.56
15360;BMP280;7779;49.596;11.070;2022-08-23T03:49:00;98309.88;;;15.52
15360;BMP280;7779;49.596;11.070;2022-08-23T03:51:34;98301.34;;;15.49
15360;BMP280;7779;49.596;11.070;2022-08-23T03:54:02;98304.63;;;15.46
15360;BMP280;7779;49.596;11.070;2022-08-23T03:56:34;98308.84;;;15.46
15360;BMP280;7779;49.596;11.070;2022-08-23T03:59:05;98310.38;;;15.42
15360;BMP280;7779;49.596;11.070;2022-08-23T04:01:32;98304.34;;;15.39
15360;BMP280;7779;49.596;11.070;2022-08-23T04:03:58;98311.88;;;15.37
15360;BMP280;7779;49.596;11.070;2022-08-23T04:06:26;98309.28;;;15.36
15360;BMP280;7779;49.596;11.070;2022-08-23T04:08:53;98308.31;;;15.32
15360;BMP280;7779;49.596;11.070;2022-08-23T04:11:21;98309.91;;;15.30
15360;BMP280;7779;49.596;11.070;2022-08-23T04:13:55;98304.78;;;15.27
15360;BMP280;7779;49.596;11.070;2022-08-23T04:16:21;98312.28;;;15.26
15360;BMP280;7779;49.596;11.070;2022-08-23T04:18:47;98314.75;;;15.24
15360;BMP280;7779;49.596;11.070;2022-08-23T04:21:19;98318.06;;;15.23
15360;BMP280;7779;49.596;11.070;2022-08-23T04:23:47;98322.19;;;15.22
15360;BMP280;7779;49.596;11.070;2022-08-23T04:26:13;98317.97;;;15.21
15360;BMP280;7779;49.596;11.070;2022-08-23T04:28:41;98321.28;;;15.20
15360;BMP280;7779;49.596;11.070;2022-08-23T04:31:07;98318.69;;;15.18
15360;BMP280;7779;49.596;11.070;2022-08-23T04:33:35;98327.94;;;15.18
15360;BMP280;7779;49.596;11.070;2022-08-23T04:36:03;98325.34;;;15.16
15360;BMP280;7779;49.596;11.070;2022-08-23T04:38:29;98321.91;;;15.14
15360;BMP280;7779;49.596;11.070;2022-08-23T04:41:00;98326.09;;;15.14
15360;BMP280;7779;49.596;11.070;2022-08-23T04:43:46;98334.41;;;15.13
15360;BMP280;7779;49.596;11.070;2022-08-23T04:46:14;98336.88;;;15.11
15360;BMP280;7779;49.596;11.070;2022-08-23T04:48:46;98346.97;;;15.11
15360;BMP280;7779;49.596;11.070;2022-08-23T04:51:12;98344.41;;;15.10
15360;BMP280;7779;49.596;11.070;2022-08-23T04:53:39;98344.41;;;15.10
15360;BMP280;7779;49.596;11.070;2022-08-23T04:56:28;98356.22;;;15.11
15360;BMP280;7779;49.596;11.070;2022-08-23T04:58:55;98368.03;;;15.12
15360;BMP280;7779;49.596;11.070;2022-08-23T05:01:22;98365.59;;;15.13
15360;BMP280;7779;49.596;11.070;2022-08-23T05:03:54;98354.91;;;15.19
15360;BMP280;7779;49.596;11.070;2022-08-23T05:06:21;98364.19;;;15.20
15360;BMP280;7779;49.596;11.070;2022-08-23T05:08:47;98366.06;;;15.25
15360;BMP280;7779;49.596;11.070;2022-08-23T05:11:14;98366.25;;;15.29
15360;BMP280;7779;49.596;11.070;2022-08-23T05:13:40;98363.06;;;15.33
15360;BMP280;7779;49.596;11.070;2022-08-23T05:16:09;98365.78;;;15.39
15360;BMP280;7779;49.596;11.070;2022-08-23T05:18:41;98360.97;;;15.45
15360;BMP280;7779;49.596;11.070;2022-08-23T05:21:18;98369.72;;;15.53
15360;BMP280;7779;49.596;11.070;2022-08-23T05:23:46;98371.66;;;15.60
15360;BMP280;7779;49.596;11.070;2022-08-23T05:26:18;98374.56;;;15.70
15360;BMP280;7779;49.596;11.070;2022-08-23T05:28:46;98371.50;;;15.79
15360;BMP280;7779;49.596;11.070;2022-08-23T05:31:22;98383.78;;;15.92
15360;BMP280;7779;49.596;11.070;2022-08-23T05:33:52;98381.69;;;16.03
15360;BMP280;7779;49.596;11.070;2022-08-23T05:36:50;98381.47;;;16.19
15360;BMP280;7779;49.596;11.070;2022-08-23T05:39:18;98386.22;;;16.35
15360;BMP280;7779;49.596;11.070;2022-08-23T05:41:46;98390.19;;;16.52
15360;BMP280;7779;49.596;11.070;2022-08-23T05:44:12;98379.81;;;16.69
15360;BMP280;7779;49.596;11.070;2022-08-23T05:46:41;98381.25;;;16.87
15360;BMP280;7779;49.596;11.070;2022-08-23T05:49:24;98387.06;;;17.10
15360;BMP280;7779;49.596;11.070;2022-08-23T05:51:50;98380.16;;;17.30
15360;BMP280;7779;49.596;11.070;2022-08-23T05:54:16;98387.56;;;17.51
15360;BMP280;7779;49.596;11.070;2022-08-23T05:56:47;98385.75;;;17.74
15360;BMP280;7779;49.596;11.070;2022-08-23T05:59:15;98380.50;;;17.98
15360;BMP280;7779;49.596;11.070;2022-08-23T06:01:43;98377.84;;;18.22
15360;BMP280;7779;49.596;11.070;2022-08-23T06:04:15;98386.94;;;18.45
15360;BMP280;7779;49.596;11.070;2022-08-23T06:06:42;98386.69;;;18.68
15360;BMP280;7779;49.596;11.070;2022-08-23T06:09:13;98375.44;;;18.91
15360;BMP280;7779;49.596;11.070;2022-08-23T06:11:44;98376.06;;;19.15
15360;BMP280;7779;49.596;11.070;2022-08-23T06:14:12;98385.00;;;19.34
15360;BMP280;7779;49.596;11.070;2022-08-23T06:16:44;98382.09;;;19.56
15360;BMP280;7779;49.596;11.070;2022-08-23T06:19:13;98385.84;;;19.73
15360;BMP280;7779;49.596;11.070;2022-08-23T06:21:49;98398.13;;;19.92
15360;BMP280;7779;49.596;11.070;2022-08-23T06:24:30;98390.00;;;20.07
15360;BMP280;7779;49.596;11.070;2022-08-23T06:27:09;98398.84;;;20.24
15360;BMP280;7779;49.596;11.070;2022-08-23T06:29:36;98389.78;;;20.39
15360;BMP280;7779;49.596;11.070;2022-08-23T06:32:21;98392.66;;;20.56
15360;BMP280;7779;49.596;11.070;2022-08-23T06:35:06;98385.34;;;20.72
15360;BMP280;7779;49.596;11.070;2022-08-23T06:37:46;98384.81;;;20.89
15360;BMP280;7779;49.596;11.070;2022-08-23T06:40:47;98385.13;;;21.10
15360;BMP280;7779;49.596;11.070;2022-08-23T06:43:25;98378.63;;;21.27
15360;BMP280;7779;49.596;11.070;2022-08-23T06:46:17;98374.66;;;21.44
15360;BMP280;7779;49.596;11.070;2022-08-23T06:48:44;98380.81;;;21.57
15360;BMP280;7779;49.596;11.070;2022-08-23T06:53:59;98381.19;;;21.84
15360;BMP280;7779;49.596;11.070;2022-08-23T06:56:52;98375.41;;;21.98
15360;BMP280;7779;49.596;11.070;2022-08-23T06:59:27;98381.56;;;22.14
15360;BMP280;7779;49.596;11.070;2022-08-23T07:02:13;98382.59;;;22.26
15360;BMP280;7779;49.596;11.070;2022-08-23T07:04:58;98381.03;;;22.38
15360;BMP280;7779;49.596;11.070;2022-08-23T07:07:36;98385.44;;;22.51
15360;BMP280;7779;49.596;11.070;2022-08-23T07:10:04;98382.16;;;22.64
15360;BMP280;7779;49.596;11.070;2022-08-23T07:12:31;98381.44;;;22.78
15360;BMP280;7779;49.596;11.070;2022-08-23T07:14:57;98371.38;;;22.90
15360;BMP280;7779;49.596;11.070;2022-08-23T07:17:23;98374.88;;;23.04
15360;BMP280;7779;49.596;11.070;2022-08-23T07:19:50;98380.13;;;23.17
15360;BMP280;7779;49.596;11.070;2022-08-23T07:22:16;98379.34;;;23.30
15360;BMP280;7779;49.596;11.070;2022-08-23T07:24:44;98386.25;;;23.43
15360;BMP280;7779;49.596;11.070;2022-08-23T07:27:10;98381.19;;;23.55
15360;BMP280;7779;49.596;11.070;2022-08-23T07:29:44;98389.00;;;23.68
15360;BMP280;7779;49.596;11.070;2022-08-23T07:32:11;98381.41;;;23.79
15360;BMP280;7779;49.596;11.070;2022-08-23T07:34:37;98383.13;;;23.89
15360;BMP280;7779;49.596;11.070;2022-08-23T07:37:03;98384.91;;;23.98
15360;BMP280;7779;49.596;11.070;2022-08-23T07:39:30;98386.66;;;24.08
15360;BMP280;7779;49.596;11.070;2022-08-23T07:42:02;98385.84;;;24.18
15360;BMP280;7779;49.596;11.070;2022-08-23T07:44:29;98383.34;;;24.27
15360;BMP280;7779;49.596;11.070;2022-08-23T07:46:56;98387.63;;;24.34
15360;BMP280;7779;49.596;11.070;2022-08-23T07:49:22;98381.69;;;24.44
15360;BMP280;7779;49.596;11.070;2022-08-23T07:51:50;98385.97;;;24.55
15360;BMP280;7779;49.596;11.070;2022-08-23T07:54:19;98374.88;;;24.67
15360;BMP280;7779;49.596;11.070;2022-08-23T07:57:05;98380.91;;;24.76
15360;BMP280;7779;49.596;11.070;2022-08-23T07:59:50;98387.75;;;24.87
15360;BMP280;7779;49.596;11.070;2022-08-23T08:02:25;98379.25;;;24.96
15360;BMP280;7779;49.596;11.070;2022-08-23T08:04:52;98386.09;;;25.03
15360;BMP280;7779;49.596;11.070;2022-08-23T08:07:18;98383.53;;;25.10
15360;BMP280;7779;49.596;11.070;2022-08-23T08:09:50;98381.81;;;25.18
15360;BMP280;7779;49.596;11.070;2022-08-23T08:12:17;98388.66;;;25.26
15360;BMP280;7779;49.596;11.070;2022-08-23T08:14:43;98385.22;;;25.32
15360;BMP280;7779;49.596;11.070;2022-08-23T08:17:11;98386.94;;;25.39
15360;BMP280;7779;49.596;11.070;2022-08-23T08:20:06;98388.63;;;25.47
15360;BMP280;7779;49.596;11.070;2022-08-23T08:22:33;98387.75;;;25.52
15360;BMP280;7779;49.596;11.070;2022-08-23T08:25:37;98395.50;;;25.58
15360;BMP280;7779;49.596;11.070;2022-08-23T08:28:06;98386.91;;;25.65
15360;BMP280;7779;49.596;11.070;2022-08-23T08:30:32;98386.91;;;25.68
15360;BMP280;7779;49.596;11.070;2022-08-23T08:33:00;98389.47;;;25.76
15360;BMP280;7779;49.596;11.070;2022-08-23T08:35:27;98387.75;;;25.82
15360;BMP280;7779;49.596;11.070;2022-08-23T08:37:53;98387.72;;;25.88
15360;BMP280;7779;49.596;11.070;2022-08-23T08:40:29;98392.81;;;25.95
15360;BMP280;7779;49.596;11.070;2022-08-23T08:43:25;98394.50;;;26.02
15360;BMP280;7779;49.596;11.070;2022-08-23T08:46:10;98389.34;;;26.08
15360;BMP280;7779;49.596;11.070;2022-08-23T08:48:46;98390.19;;;26.15
15360;BMP280;7779;49.596;11.070;2022-08-23T08:53:58;98390.19;;;26.24
15360;BMP280;7779;49.596;11.070;2022-08-23T08:56:36;98385.00;;;26.30
15360;BMP280;7779;49.596;11.070;2022-08-23T09:00:07;98387.53;;;26.35
15360;BMP280;7779;49.596;11.070;2022-08-23T09:02:37;98388.38;;;26.39
15360;BMP280;7779;49.596;11.070;2022-08-23T09:05:16;98394.38;;;26.45
15360;BMP280;7779;49.596;11.070;2022-08-23T09:11:10;98388.34;;;26.48
15360;BMP280;7779;49.596;11.070;2022-08-23T09:13:57;98384.03;;;26.50
15360;BMP280;7779;49.596;11.070;2022-08-23T09:17:01;98383.19;;;26.49
15360;BMP280;7779;49.596;11.070;2022-08-23T09:19:33;98388.34;;;26.49
15360;BMP280;7779;49.596;11.070;2022-08-23T09:22:08;98377.22;;;26.49
15360;BMP280;7779;49.596;11.070;2022-08-23T09:24:35;98388.34;;;26.52
15360;BMP280;7779;49.596;11.070;2022-08-23T09:27:14;98384.88;;;26.58
15360;BMP280;7779;49.596;11.070;2022-08-23T09:29:57;98383.97;;;26.65
15360;BMP280;7779;49.596;11.070;2022-08-23T09:32:33;98372.81;;;26.69
15360;BMP280;7779;49.596;11.070;2022-08-23T09:35:24;98375.34;;;26.73
15360;BMP280;7779;49.596;11.070;2022-08-23T09:38:14;98368.47;;;26.76
15360;BMP280;7779;49.596;11.070;2022-08-23T09:40:47;98377.84;;;26.82
15360;BMP280;7779;49.596;11.070;2022-08-23T09:43:22;98376.16;;;26.85
15360;BMP280;7779;49.596;11.070;2022-08-23T09:45:55;98368.41;;;26.88
15360;BMP280;7779;49.596;11.070;2022-08-23T09:48:43;98375.25;;;26.94
15360;BMP280;7779;49.596;11.070;2022-08-23T09:51:36;98367.47;;;26.97
15360;BMP280;7779;49.596;11.070;2022-08-23T09:54:31;98359.75;;;27.00
15360;BMP280;7779;49.596;11.070;2022-08-23T09:57:06;98356.28;;;27.07
15360;BMP280;7779;49.596;11.070;2022-08-23T09:59:45;98355.34;;;27.13
15360;BMP280;7779;49.596;11.070;2022-08-23T10:02:30;98367.25;;;27.23
15360;BMP280;7779;49.596;11.070;2022-08-23T10:05:19;98364.66;;;27.28
15360;BMP280;7779;49.596;11.070;2022-08-23T10:08:00;98354.31;;;27.31
15360;BMP280;7779;49.596;11.070;2022-08-23T10:13:02;98357.69;;;27.39
15360;BMP280;7779;49.596;11.070;2022-08-23T10:18:58;98361.09;;;27.45
15360;BMP280;7779;49.596;11.070;2022-08-23T10:24:52;98363.50;;;27.60
15360;BMP280;7779;49.596;11.070;2022-08-23T10:30:53;98347.94;;;27.72
15360;BMP280;7779;49.596;11.070;2022-08-23T10:34:05;98352.16;;;27.77
15360;BMP280;7779;49.596;11.070;2022-08-23T10:39:30;98346.91;;;27.88
15360;BMP280;7779;49.596;11.070;2022-08-23T10:44:54;98342.56;;;27.92
15360;BMP280;7779;49.596;11.070;2022-08-23T10:47:36;98335.69;;;27.91
15360;BMP280;7779;49.596;11.070;2022-08-23T10:50:13;98326.22;;;27.93
15360;BMP280;7779;49.596;11.070;2022-08-23T10:52:56;98334.75;;;27.97
15360;BMP280;7779;49.596;11.070;2022-08-23T10:55:32;98329.56;;;28.03
15360;BMP280;7779;49.596;11.070;2022-08-23T10:58:06;98320.06;;;28.06
15360;BMP280;7779;49.596;11.070;2022-08-23T11:00:34;98330.31;;;28.12
15360;BMP280;7779;49.596;11.070;2022-08-23T11:09:28;98326.72;;;28.25
15360;BMP280;7779;49.596;11.070;2022-08-23T11:12:12;98313.81;;;28.25
15360;BMP280;7779;49.596;11.070;2022-08-23T11:14:47;98316.41;;;28.25
15360;BMP280;7779;49.596;11.070;2022-08-23T11:32:04;98306.78;;;28.37
15360;BMP280;7779;49.596;11.070;2022-08-23T11:35:06;98302.38;;;28.44
15360;BMP280;7779;49.596;11.070;2022-08-23T11:38:00;98298.00;;;28.49
15360;BMP280;7779;49.596;11.070;2022-08-23T11:43:37;98298.75;;;28.57
15360;BMP280;7779;49.596;11.070;2022-08-23T11:52:34;98303.78;;;28.66
15360;BMP280;7779;49.596;11.070;2022-08-23T11:58:29;98290.84;;;28.70
15360;BMP280;7779;49.596;11.070;2022-08-23T12:01:06;98289.91;;;28.75
15360;BMP280;7779;49.596;11.070;2022-08-23T12:04:00;98291.50;;;28.82
15360;BMP280;7779;49.596;11.070;2022-08-23T12:06:57;98283.66;;;28.88
15360;BMP280;7779;49.596;11.070;2022-08-23T12:17:01;98290.19;;;29.09
15360;BMP280;7779;49.596;11.070;2022-08-23T12:19:37;98291.84;;;29.11
15360;BMP280;7779;49.596;11.070;2022-08-23T12:22:29;98285.81;;;29.12
15360;BMP280;7779;49.596;11.070;2022-08-23T12:25:06;98286.63;;;29.14
15360;BMP280;7779;49.596;11.070;2022-08-23T12:30:16;98293.47;;;29.19
15360;BMP280;7779;49.596;11.070;2022-08-23T12:32:59;98291.66;;;29.24
15360;BMP280;7779;49.596;11.070;2022-08-23T12:39:01;98287.22;;;29.31
15360;BMP280;7779;49.596;11.070;2022-08-23T12:41:34;98277.69;;;29.34
15360;BMP280;7779;49.596;11.070;2022-08-23T12:44:19;98280.19;;;29.40
15360;BMP280;7779;49.596;11.070;2022-08-23T12:46:48;98271.50;;;29.43
15360;BMP280;7779;49.596;11.070;2022-08-23T12:49:33;98281.72;;;29.49
15360;BMP280;7779;49.596;11.070;2022-08-23T12:52:07;98277.41;;;29.49
15360;BMP280;7779;49.596;11.070;2022-08-23T12:54:45;98268.78;;;29.50
15360;BMP280;7779;49.596;11.070;2022-08-23T12:57:20;98269.63;;;29.50
15360;BMP280;7779;49.596;11.070;2022-08-23T13:00:32;98261.00;;;29.51
15360;BMP280;7779;49.596;11.070;2022-08-23T13:05:57;98266.94;;;29.56
15360;BMP280;7779;49.596;11.070;2022-08-23T13:08:48;98254.88;;;29.57
15360;BMP280;7779;49.596;11.070;2022-08-23T13:11:20;98257.34;;;29.61
15360;BMP280;7779;49.596;11.070;2022-08-23T13:13:47;98257.31;;;29.64
15360;BMP280;7779;49.596;11.070;2022-08-23T13:16:41;98255.53;;;29.66
15360;BMP280;7779;49.596;11.070;2022-08-23T13:21:40;98260.63;;;29.71
15360;BMP280;7779;49.596;11.070;2022-08-23T13:24:33;98245.00;;;29.78
15360;BMP280;7779;49.596;11.070;2022-08-23T13:27:24;98239.75;;;29.81
15360;BMP280;7779;49.596;11.070;2022-08-23T13:30:00;98249.16;;;29.85
15360;BMP280;7779;49.596;11.070;2022-08-23T13:35:32;98243.03;;;29.89
15360;BMP280;7779;49.596;11.070;2022-08-23T13:46:26;98235.19;;;29.93
15360;BMP280;7779;49.596;11.070;2022-08-23T13:49:02;98227.38;;;29.96
15360;BMP280;7779;49.596;11.070;2022-08-23T13:51:35;98234.19;;;29.99
15360;BMP280;7779;49.596;11.070;2022-08-23T13:54:14;98227.25;;;30.01
15360;BMP280;7779;49.596;11.070;2022-08-23T13:56:50;98221.22;;;30.02
15360;BMP280;7779;49.596;11.070;2022-08-23T13:59:30;98224.63;;;30.04
15360;BMP280;7779;49.596;11.070;2022-08-23T14:01:58;98222.03;;;30.04
15360;BMP280;7779;49.596;11.070;2022-08-23T14:04:24;98218.59;;;30.05
15360;BMP280;7779;49.596;11.070;2022-08-23T14:06:50;98216.00;;;30.05
15360;BMP280;7779;49.596;11.070;2022-08-23T14:09:17;98223.66;;;30.08
15360;BMP280;7779;49.596;11.070;2022-08-23T14:11:54;98214.13;;;30.11
15360;BMP280;7779;49.596;11.070;2022-08-23T14:14:20;98216.69;;;30.11
15360;BMP280;7779;49.596;11.070;2022-08-23T14:16:46;98205.50;;;30.12
15360;BMP280;7779;49.596;11.070;2022-08-23T14:19:12;98206.34;;;30.13
15360;BMP280;7779;49.596;11.070;2022-08-23T14:21:38;98203.72;;;30.14
15360;BMP280;7779;49.596;11.070;2022-08-23T14:24:04;98211.44;;;30.16
15360;BMP280;7779;49.596;11.070;2022-08-23T14:26:30;98209.72;;;30.15
15360;BMP280;7779;49.596;11.070;2022-08-23T14:28:56;98208.06;;;30.12
15360;BMP280;7779;49.596;11.070;2022-08-23T14:31:22;98214.09;;;30.13
15360;BMP280;7779;49.596;11.070;2022-08-23T14:33:48;98218.38;;;30.14
15360;BMP280;7779;49.596;11.070;2022-08-23T14:36:15;98211.44;;;30.16
15360;BMP280;7779;49.596;11.070;2022-08-23T14:38:41;98213.94;;;30.19
15360;BMP280;7779;49.596;11.070;2022-08-23T14:41:17;98205.22;;;30.23
15360;BMP280;7779;49.596;11.070;2022-08-23T14:43:44;98212.06;;;30.25
15360;BMP280;7779;49.596;11.070;2022-08-23T14:46:09;98218.03;;;30.30
15360;BMP280;7779;49.596;11.070;2022-08-23T14:48:35;98214.50;;;30.32
15360;BMP280;7779;49.596;11.070;2022-08-23T14:51:02;98215.31;;;30.34
15360;BMP280;7779;49.596;11.070;2022-08-23T14:53:31;98205.78;;;30.36
15360;BMP280;7779;49.596;11.070;2022-08-23T14:55:58;98208.34;;;30.38
15360;BMP280;7779;49.596;11.070;2022-08-23T14:58:24;98207.41;;;30.40
15360;BMP280;7779;49.596;11.070;2022-08-23T15:00:51;98205.63;;;30.42
15360;BMP280;7779;49.596;11.070;2022-08-23T15:03:25;98199.59;;;30.43
15360;BMP280;7779;49.596;11.070;2022-08-23T15:05:52;98203.91;;;30.44
15360;BMP280;7779;49.596;11.070;2022-08-23T15:08:19;98206.41;;;30.46
15360;BMP280;7779;49.596;11.070;2022-08-23T15:10:45;98203.00;;;30.45
15360;BMP280;7779;49.596;11.070;2022-08-23T15:13:11;98202.13;;;30.46
15360;BMP280;7779;49.596;11.070;2022-08-23T15:15:37;98212.47;;;30.46
15360;BMP280;7779;49.596;11.070;2022-08-23T15:18:07;98212.47;;;30.46
15360;BMP280;7779;49.596;11.070;2022-08-23T15:20:36;98209.88;;;30.46
15360;BMP280;7779;49.596;11.070;2022-08-23T15:23:06;98209.06;;;30.44
15360;BMP280;7779;49.596;11.070;2022-08-23T15:25:36;98214.25;;;30.44
15360;BMP280;7779;49.596;11.070;2022-08-23T15:28:07;98209.06;;;30.44
15360;BMP280;7779;49.596;11.070;2022-08-23T15:30:34;98215.97;;;30.42
15360;BMP280;7779;49.596;11.070;2022-08-23T15:33:00;98205.72;;;30.39
15360;BMP280;7779;49.596;11.070;2022-08-23T15:35:27;98209.19;;;30.38
15360;BMP280;7779;49.596;11.070;2022-08-23T15:37:55;98204.06;;;30.37
15360;BMP280;7779;49.596;11.070;2022-08-23T15:40:22;98208.34;;;30.38
15360;BMP280;7779;49.596;11.070;2022-08-23T15:42:47;98210.09;;;30.37
15360;BMP280;7779;49.596;11.070;2022-08-23T15:45:14;98204.91;;;30.39
15360;BMP280;7779;49.596;11.070;2022-08-23T15:47:49;98203.97;;;30.41
15360;BMP280;7779;49.596;11.070;2022-08-23T15:50:17;98205.63;;;30.42
15360;BMP280;7779;49.596;11.070;2022-08-23T15:52:44;98209.13;;;30.41
15360;BMP280;7779;49.596;11.070;2022-08-23T15:55:10;98200.56;;;30.39
15360;BMP280;7779;49.596;11.070;2022-08-23T15:57:50;98196.22;;;30.40
15360;BMP280;7779;49.596;11.070;2022-08-23T16:00:20;98205.72;;;30.39
15360;BMP280;7779;49.596;11.070;2022-08-23T16:02:47;98198.88;;;30.37
15360;BMP280;7779;49.596;11.070;2022-08-23T16:05:13;98201.56;;;30.34
15360;BMP280;7779;49.596;11.070;2022-08-23T16:07:41;98212.00;;;30.30
15360;BMP280;7779;49.596;11.070;2022-08-23T16:10:09;98202.56;;;30.26
15360;BMP280;7779;49.596;11.070;2022-08-23T16:12:38;98205.22;;;30.23
15360;BMP280;7779;49.596;11.070;2022-08-23T16:15:06;98202.63;;;30.23
15360;BMP280;7779;49.596;11.070;2022-08-23T16:17:34;98208.75;;;30.20